Time;durP1;ratioP1;P1;durP2;ratioP2;P2;SDS_P1;SDS_P2;PMS_P1;PMS_P2;Temp;Humidity;BMP_temperature;BMP_pressure;BME280_temperature;BME280_humidity;BME280_pressure;Samples;Min_cycle;Max_cycle;Signal;HPM_P1;HPM_P2
2022/07/06 00:00:16;;;;;;;8.65;2.97;;;;;;;16.46;87.63;102042.63;4955532;28;20054;-70
2022/07/06 00:02:43;;;;;;;8.82;3.30;;;;;;;16.43;86.27;102049.81;4953267;28;20555;-69
2022/07/06 00:05:09;;;;;;;7.03;3.65;;;;;;;16.39;87.28;102049.00;4966924;28;20043;-68
2022/07/06 00:07:36;;;;;;;6.57;2.67;;;;;;;16.42;87.24;102047.41;4955300;28;20143;-68
2022/07/06 00:10:03;;;;;;;10.13;3.30;;;;;;;16.39;87.60;102046.22;4953180;28;20820;-69
2022/07/06 00:12:29;;;;;;;8.80;3.13;;;;;;;16.29;87.57;102044.25;4953992;28;20062;-71
2022/07/06 00:14:56;;;;;;;9.85;2.92;;;;;;;16.22;87.90;102041.50;4953097;28;20051;-69
2022/07/06 00:17:23;;;;;;;9.13;3.40;;;;;;;16.23;87.19;102045.88;4954408;28;20137;-69
2022/07/06 00:19:49;;;;;;;12.38;3.72;;;;;;;16.17;87.17;102049.50;4954729;28;20050;-70
2022/07/06 00:22:16;;;;;;;8.80;3.30;;;;;;;16.10;87.94;102038.34;4951229;28;20070;-69
2022/07/06 00:24:42;;;;;;;10.75;3.22;;;;;;;16.04;89.41;102043.56;4952427;28;20051;-70
2022/07/06 00:27:09;;;;;;;10.38;2.88;;;;;;;16.06;89.42;102045.94;4952842;28;20050;-70
2022/07/06 00:29:36;;;;;;;7.95;3.45;;;;;;;16.01;89.68;102046.34;4953534;28;20053;-70
2022/07/06 00:32:02;;;;;;;10.27;3.30;;;;;;;15.94;89.97;102052.75;4952980;28;20145;-68
2022/07/06 00:34:29;;;;;;;7.05;2.80;;;;;;;15.90;90.25;102054.75;4954739;28;20583;-68
2022/07/06 00:36:56;;;;;;;12.55;4.85;;;;;;;15.89;89.93;102057.94;4953919;28;20261;-70
2022/07/06 00:39:28;;;;;;;8.18;3.30;;;;;;;15.85;89.89;102048.75;4954198;28;20046;-69
2022/07/06 00:41:56;;;;;;;9.25;3.03;;;;;;;15.79;90.05;102053.94;4951899;28;20651;-67
2022/07/06 00:44:23;;;;;;;10.95;4.25;;;;;;;15.80;89.45;102036.03;4952115;28;20054;-69
2022/07/06 00:46:50;;;;;;;12.38;2.97;;;;;;;15.78;90.40;102048.75;4953403;28;20051;-70
2022/07/06 00:52:02;;;;;;;8.23;3.20;;;;;;;15.75;90.54;102047.56;4952124;28;20831;-69
2022/07/06 00:54:32;;;;;;;7.45;2.95;;;;;;;15.77;90.03;102038.81;4952099;28;20050;-68
2022/07/06 00:56:59;;;;;;;9.30;3.33;;;;;;;15.78;89.72;102051.56;4953002;28;20057;-68
2022/07/06 00:59:27;;;;;;;6.85;3.10;;;;;;;15.82;90.53;102046.78;4951636;28;20099;-68
2022/07/06 01:01:54;;;;;;;9.65;3.35;;;;;;;15.90;89.49;102046.38;4952576;28;20062;-67
2022/07/06 01:04:20;;;;;;;6.22;2.95;;;;;;;15.95;89.23;102048.75;4952403;28;20208;-69
2022/07/06 01:06:47;;;;;;;9.77;3.42;;;;;;;15.97;88.32;102049.16;4951462;28;20772;-68
2022/07/06 01:09:14;;;;;;;6.68;3.13;;;;;;;15.98;88.53;102049.94;4953719;28;20050;-67
2022/07/06 01:11:41;;;;;;;4.88;2.97;;;;;;;15.99;88.83;102055.13;4952776;28;20051;-68
2022/07/06 01:14:08;;;;;;;8.63;2.95;;;;;;;16.02;87.93;102053.50;4952941;28;20057;-66
2022/07/06 01:16:35;;;;;;;7.68;3.20;;;;;;;15.99;87.83;102062.72;4951333;28;20526;-67
2022/07/06 01:19:02;;;;;;;5.80;2.70;;;;;;;16.01;87.69;102060.28;4953555;28;20055;-69
2022/07/06 01:21:29;;;;;;;8.75;3.05;;;;;;;16.06;87.85;102062.69;4953047;28;20053;-67
2022/07/06 01:23:55;;;;;;;7.38;3.20;;;;;;;16.07;87.38;102058.69;4953217;28;20051;-68
2022/07/06 01:26:22;;;;;;;7.32;2.20;;;;;;;16.03;86.44;102058.69;4952616;28;20049;-69
2022/07/06 01:28:50;;;;;;;10.63;2.55;;;;;;;15.94;87.54;102047.16;4953351;28;20141;-67
2022/07/06 01:31:20;;;;;;;7.32;2.92;;;;;;;15.96;86.45;102055.13;4953666;28;20060;-68
2022/07/06 01:33:48;;;;;;;8.00;3.13;;;;;;;15.95;86.33;102051.53;4953658;28;20090;-69
2022/07/06 01:36:15;;;;;;;7.80;2.95;;;;;;;15.98;86.06;102047.94;4952822;28;20821;-68
2022/07/06 01:38:50;;;;;;;4.63;2.50;;;;;;;16.04;86.48;102048.31;4954933;28;20061;-72
2022/07/06 01:41:17;;;;;;;5.18;2.50;;;;;;;15.91;86.73;102041.56;4965071;28;20058;-68
2022/07/06 01:43:45;;;;;;;6.85;2.85;;;;;;;15.85;87.01;102043.97;4964000;28;20134;-67
2022/07/06 01:46:12;;;;;;;8.75;4.18;;;;;;;15.73;87.28;102038.81;4953092;28;20138;-70
2022/07/06 01:48:39;;;;;;;7.95;2.70;;;;;;;15.60;88.77;102032.06;4967048;28;20113;-68
2022/07/06 01:51:06;;;;;;;5.97;2.75;;;;;;;15.53;88.97;102054.38;4957215;28;20054;-68
2022/07/06 01:53:33;;;;;;;7.03;2.83;;;;;;;15.43;90.08;102047.59;4960130;28;20126;-68
2022/07/06 01:55:59;;;;;;;7.43;2.75;;;;;;;15.31;90.55;102039.59;4956338;28;20495;-69
2022/07/06 01:58:26;;;;;;;7.05;2.95;;;;;;;15.33;90.39;102048.34;4958208;28;20051;-69
2022/07/06 02:00:53;;;;;;;8.27;2.97;;;;;;;15.22;91.15;102036.41;4966684;28;20134;-69
2022/07/06 02:03:19;;;;;;;13.45;3.58;;;;;;;15.22;91.38;102046.75;4964745;28;20127;-70
2022/07/06 02:05:46;;;;;;;9.73;3.13;;;;;;;15.11;91.98;102038.38;4963554;28;20047;-67
2022/07/06 02:08:13;;;;;;;8.07;2.92;;;;;;;14.97;94.87;102040.34;4970486;28;20105;-68
2022/07/06 02:10:40;;;;;;;7.55;3.10;;;;;;;14.86;94.63;102039.53;4970135;28;20130;-67
2022/07/06 02:13:06;;;;;;;12.65;3.25;;;;;;;14.81;94.77;102040.72;4961191;28;20065;-68
2022/07/06 02:15:33;;;;;;;10.32;3.00;;;;;;;14.78;97.32;102044.28;4965001;28;20075;-68
2022/07/06 02:18:00;;;;;;;8.38;2.92;;;;;;;14.70;97.62;102044.66;4969691;28;20085;-68
2022/07/06 02:20:26;;;;;;;9.95;3.17;;;;;;;14.62;97.86;102040.28;4963774;28;20054;-67
2022/07/06 02:22:53;;;;;;;7.97;3.05;;;;;;;14.65;97.38;102043.06;4961417;28;20719;-70
2022/07/06 02:25:20;;;;;;;8.07;2.90;;;;;;;14.64;97.13;102041.47;4968221;28;20527;-68
2022/07/06 02:27:46;;;;;;;10.88;3.22;;;;;;;14.69;96.68;102031.94;4965206;28;20047;-67
2022/07/06 02:30:13;;;;;;;9.40;2.95;;;;;;;14.69;97.13;102035.53;4965450;28;20137;-70
2022/07/06 02:32:39;;;;;;;5.43;2.78;;;;;;;14.64;97.67;102033.09;4963256;28;20234;-67
2022/07/06 02:35:06;;;;;;;5.80;2.33;;;;;;;14.67;97.76;102037.91;4970146;28;20061;-66
2022/07/06 02:37:33;;;;;;;7.13;2.50;;;;;;;14.64;97.31;102030.31;4959698;28;20106;-68
2022/07/06 02:39:59;;;;;;;7.20;2.53;;;;;;;14.68;97.50;102033.91;4958657;28;20483;-68
2022/07/06 02:42:26;;;;;;;6.07;2.55;;;;;;;14.67;98.25;102035.13;4966751;28;20121;-68
2022/07/06 02:44:53;;;;;;;7.05;2.42;;;;;;;14.64;97.84;102038.69;4969668;28;20081;-67
2022/07/06 02:47:20;;;;;;;9.95;2.70;;;;;;;14.59;99.31;102041.84;4961690;28;20385;-67
2022/07/06 02:49:46;;;;;;;8.15;2.72;;;;;;;14.64;99.35;102046.22;4967559;28;20059;-66
2022/07/06 02:52:13;;;;;;;7.60;2.55;;;;;;;14.56;100.00;102045.44;4960437;28;20105;-67
2022/07/06 02:54:40;;;;;;;7.75;2.70;;;;;;;14.53;100.00;102049.00;4963786;28;20125;-68
2022/07/06 02:57:06;;;;;;;8.30;2.47;;;;;;;14.55;100.00;102046.59;4962179;28;20547;-68
2022/07/06 02:59:33;;;;;;;5.47;2.45;;;;;;;14.54;100.00;102045.00;4962638;28;20058;-70
2022/07/06 03:01:59;;;;;;;9.80;2.85;;;;;;;14.51;100.00;102042.22;4965202;28;20043;-67
2022/07/06 03:04:26;;;;;;;7.80;2.53;;;;;;;14.58;100.00;102039.47;4964606;28;20145;-69
2022/07/06 03:06:52;;;;;;;4.57;2.10;;;;;;;14.60;100.00;102037.88;4968471;28;20047;-67
2022/07/06 03:09:19;;;;;;;6.35;2.30;;;;;;;14.58;100.00;102050.59;4965726;28;20461;-67
2022/07/06 03:11:46;;;;;;;7.70;2.78;;;;;;;14.45;100.00;102043.78;4962850;28;20047;-67
2022/07/06 03:14:12;;;;;;;10.88;2.88;;;;;;;14.37;100.00;102053.28;4967010;28;20166;-68
2022/07/06 03:16:39;;;;;;;7.13;2.58;;;;;;;14.35;100.00;102048.09;4968511;28;20050;-67
2022/07/06 03:19:05;;;;;;;8.60;2.92;;;;;;;14.40;100.00;102061.66;4965773;28;20595;-68
2022/07/06 03:21:32;;;;;;;7.70;3.17;;;;;;;14.40;100.00;102055.28;4973363;28;20046;-66
2022/07/06 03:23:59;;;;;;;6.93;2.95;;;;;;;14.43;100.00;102065.66;4970622;28;20539;-70
2022/07/06 03:26:26;;;;;;;10.02;2.90;;;;;;;14.48;100.00;102071.63;4962515;28;20090;-69
2022/07/06 03:28:52;;;;;;;8.65;2.88;;;;;;;14.47;100.00;102072.03;4964302;28;20153;-67
2022/07/06 03:31:19;;;;;;;11.32;3.38;;;;;;;14.40;100.00;102072.81;4963482;28;20086;-69
2022/07/06 03:33:46;;;;;;;8.45;2.88;;;;;;;14.39;100.00;102076.78;4968681;28;20059;-68
2022/07/06 03:36:12;;;;;;;7.63;2.97;;;;;;;14.41;100.00;102063.25;4963839;28;20055;-67
2022/07/06 03:38:39;;;;;;;7.57;3.10;;;;;;;14.44;100.00;102065.25;4963849;28;20530;-69
2022/07/06 03:41:06;;;;;;;7.15;2.63;;;;;;;14.53;100.00;102056.53;4954992;28;20086;-68
2022/07/06 03:43:32;;;;;;;9.00;3.20;;;;;;;14.58;100.00;102056.19;4965825;28;20083;-67
2022/07/06 03:45:59;;;;;;;9.82;2.92;;;;;;;14.64;100.00;102057.38;4968204;28;20078;-69
2022/07/06 03:48:25;;;;;;;12.90;3.05;;;;;;;14.62;100.00;102049.41;4958070;28;20113;-67
2022/07/06 03:50:53;;;;;;;7.80;2.78;;;;;;;14.66;100.00;102049.44;4960299;28;20043;-68
2022/07/06 03:53:19;;;;;;;8.35;2.33;;;;;;;14.67;100.00;102062.16;4964619;28;20061;-68
2022/07/06 03:56:27;;;;;;;8.32;3.10;;;;;;;14.75;100.00;102049.88;4965836;28;20061;-66
2022/07/06 03:58:32;;;;;;;10.45;2.47;;;;;;;14.86;100.00;102057.06;4963809;28;20083;-67
2022/07/06 04:00:59;;;;;;;11.65;2.83;;;;;;;14.89;100.00;102063.84;4956192;28;20501;-68
2022/07/06 04:03:26;;;;;;;8.25;2.33;;;;;;;14.95;100.00;102060.25;4963441;28;20063;-68
2022/07/06 04:05:59;;;;;;;9.70;2.75;;;;;;;14.92;100.00;102066.63;4961999;28;20065;-66
2022/07/06 04:08:26;;;;;;;10.05;3.13;;;;;;;14.98;100.00;102059.47;4959912;28;20055;-69
2022/07/06 04:10:52;;;;;;;9.88;2.95;;;;;;;14.96;100.00;102061.06;4961237;28;20138;-68
2022/07/06 04:13:19;;;;;;;10.45;3.00;;;;;;;15.04;100.00;102068.25;4965972;28;20475;-67
2022/07/06 04:15:45;;;;;;;13.55;2.75;;;;;;;15.00;100.00;102073.00;4960193;28;20057;-67
2022/07/06 04:18:12;;;;;;;8.90;3.00;;;;;;;15.11;100.00;102069.06;4964638;28;20057;-69
2022/07/06 04:20:39;;;;;;;11.13;2.85;;;;;;;15.23;100.00;102067.88;4958137;28;20093;-68
2022/07/06 04:23:06;;;;;;;9.23;2.58;;;;;;;15.28;100.00;102073.06;4966770;28;20153;-68
2022/07/06 04:25:32;;;;;;;9.85;2.85;;;;;;;15.28;100.00;102068.28;4965982;28;20058;-70
2022/07/06 04:27:59;;;;;;;8.60;2.78;;;;;;;15.27;100.00;102074.25;4965510;28;20665;-68
2022/07/06 04:30:26;;;;;;;8.25;2.80;;;;;;;15.25;100.00;102080.22;4963823;28;20054;-69
2022/07/06 04:32:52;;;;;;;8.25;2.85;;;;;;;15.27;100.00;102072.28;4961476;28;20063;-66
2022/07/06 04:35:19;;;;;;;13.75;3.13;;;;;;;15.31;100.00;102073.06;4967684;28;20082;-69
2022/07/06 04:37:46;;;;;;;8.57;2.55;;;;;;;15.36;100.00;102075.47;4961096;28;20057;-68
2022/07/06 04:40:13;;;;;;;8.02;2.70;;;;;;;15.40;100.00;102067.91;4963345;28;20054;-67
2022/07/06 04:42:44;;;;;;;8.20;3.10;;;;;;;15.44;100.00;102074.31;4965111;28;20051;-67
2022/07/06 04:45:11;;;;;;;9.60;3.25;;;;;;;15.48;100.00;102074.28;4962529;28;20086;-68
2022/07/06 04:47:37;;;;;;;11.85;3.20;;;;;;;15.52;100.00;102075.91;4964295;28;20542;-69
2022/07/06 04:50:05;;;;;;;8.15;3.20;;;;;;;15.56;100.00;102075.09;4967173;28;20054;-68
2022/07/06 04:52:31;;;;;;;11.15;2.80;;;;;;;15.55;100.00;102067.94;4954696;28;20419;-69
2022/07/06 04:54:58;;;;;;;11.10;3.22;;;;;;;15.63;100.00;102075.09;4966689;28;20053;-67
2022/07/06 04:57:25;;;;;;;15.52;3.28;;;;;;;15.69;100.00;102077.06;4958986;28;20047;-68
2022/07/06 04:59:52;;;;;;;12.95;3.38;;;;;;;15.77;100.00;102072.28;4959638;28;20066;-68
2022/07/06 05:02:19;;;;;;;10.88;2.92;;;;;;;15.69;100.00;102074.28;4962189;28;20128;-67
2022/07/06 05:04:46;;;;;;;10.65;3.38;;;;;;;15.63;100.00;102075.91;4963214;28;20054;-69
2022/07/06 05:07:12;;;;;;;7.28;2.88;;;;;;;15.69;100.00;102073.50;4963481;28;20047;-69
2022/07/06 05:09:39;;;;;;;11.85;3.42;;;;;;;15.81;100.00;102068.31;4961340;28;20051;-69
2022/07/06 05:12:06;;;;;;;11.68;2.95;;;;;;;15.92;100.00;102059.91;4965516;28;20753;-68
2022/07/06 05:14:33;;;;;;;17.85;3.92;;;;;;;16.03;100.00;102058.69;4966987;28;20137;-69
2022/07/06 05:17:00;;;;;;;7.38;2.75;;;;;;;16.03;100.00;102060.69;4958601;28;20074;-70
2022/07/06 05:19:26;;;;;;;9.05;3.13;;;;;;;16.08;100.00;102065.84;4967927;28;20093;-68
2022/07/06 05:21:53;;;;;;;8.15;3.30;;;;;;;16.16;100.00;102065.44;4964563;28;20051;-67
2022/07/06 05:24:20;;;;;;;10.40;2.67;;;;;;;16.32;100.00;102070.59;4966408;28;20047;-70
2022/07/06 05:26:47;;;;;;;13.45;3.10;;;;;;;16.40;100.00;102064.56;4967074;28;20845;-67
2022/07/06 05:29:13;;;;;;;7.57;2.63;;;;;;;16.43;100.00;102065.81;4966051;28;20062;-67
2022/07/06 05:31:40;;;;;;;12.68;3.03;;;;;;;16.61;100.00;102075.69;4958436;28;20620;-69
2022/07/06 05:34:07;;;;;;;9.23;2.65;;;;;;;16.77;99.84;102064.06;4966187;28;20058;-69
2022/07/06 05:36:33;;;;;;;11.60;2.47;;;;;;;16.85;98.67;102065.59;4965584;28;20562;-68
2022/07/06 05:39:00;;;;;;;7.95;2.45;;;;;;;17.00;97.48;102075.47;4964192;28;20055;-68
2022/07/06 05:41:27;;;;;;;6.05;2.03;;;;;;;17.04;96.54;102070.69;4966886;28;20090;-68
2022/07/06 05:43:57;;;;;;;6.90;2.35;;;;;;;17.14;95.43;102072.59;4968367;28;20066;-68
2022/07/06 05:46:24;;;;;;;8.35;2.00;;;;;;;17.19;95.04;102075.78;4964018;28;20077;-68
2022/07/06 05:51:36;;;;;;;5.13;2.00;;;;;;;17.27;93.77;102073.72;4967626;28;20055;-67
2022/07/06 05:54:02;;;;;;;6.40;1.77;;;;;;;17.32;94.35;102082.47;4967364;28;20061;-68
2022/07/06 05:56:29;;;;;;;9.20;2.03;;;;;;;17.39;94.09;102084.44;4965259;28;20082;-69
2022/07/06 05:58:56;;;;;;;9.13;2.40;;;;;;;17.48;93.72;102091.16;4967880;28;20039;-68
2022/07/06 06:01:22;;;;;;;8.07;2.13;;;;;;;17.49;92.35;102089.94;4967176;28;20162;-68
2022/07/06 06:03:49;;;;;;;10.13;1.92;;;;;;;17.53;92.76;102089.94;4967247;28;20101;-68
2022/07/06 06:06:15;;;;;;;9.70;2.30;;;;;;;17.46;91.96;102104.00;4965232;28;20627;-69
2022/07/06 06:08:42;;;;;;;7.97;2.28;;;;;;;17.45;92.56;102094.78;4963660;28;20062;-69
2022/07/06 06:11:09;;;;;;;8.70;1.95;;;;;;;17.52;92.30;102094.72;4964543;28;20205;-69
2022/07/06 06:13:37;;;;;;;11.60;2.28;;;;;;;17.58;92.01;102097.88;4966174;28;20137;-68
2022/07/06 06:16:04;;;;;;;5.15;1.90;;;;;;;17.67;91.02;102095.41;4959238;28;20062;-70
2022/07/06 06:18:30;;;;;;;9.40;2.03;;;;;;;17.72;90.23;102103.38;4960183;28;20055;-67
2022/07/06 06:21:04;;;;;;;7.18;1.70;;;;;;;17.71;90.01;102104.56;4961941;28;20055;-69
2022/07/06 06:23:31;;;;;;;8.95;1.77;;;;;;;17.72;89.37;102097.78;4963116;28;20591;-68
2022/07/06 06:25:57;;;;;;;8.65;1.95;;;;;;;17.77;89.57;102105.72;4963626;28;20047;-68
2022/07/06 06:28:24;;;;;;;6.65;1.70;;;;;;;17.80;88.33;102108.50;4963167;28;20150;-68
2022/07/06 06:30:51;;;;;;;7.00;1.55;;;;;;;17.66;88.70;102105.81;4960168;28;20051;-68
2022/07/06 06:33:20;;;;;;;7.50;1.75;;;;;;;17.75;88.79;102110.94;4960357;28;21928;-67
2022/07/06 06:35:53;;;;;;;8.02;1.83;;;;;;;17.81;88.03;102104.50;4964568;28;20169;-67
2022/07/06 06:38:22;;;;;;;3.65;1.55;;;;;;;17.91;87.51;102100.00;4960614;28;20055;-68
2022/07/06 06:40:49;;;;;;;8.68;1.77;;;;;;;18.01;87.00;102107.50;4964444;28;20050;-67
2022/07/06 06:43:16;;;;;;;8.25;2.20;;;;;;;18.05;86.62;102111.06;4964465;28;20686;-67
2022/07/06 06:45:44;;;;;;;8.00;1.80;;;;;;;18.07;85.95;102107.84;4960699;28;20070;-67
2022/07/06 06:48:10;;;;;;;7.00;1.77;;;;;;;18.19;84.79;102110.91;4958265;28;20070;-68
2022/07/06 06:50:47;;;;;;;11.70;1.75;;;;;;;18.26;83.66;102116.44;4965118;28;20097;-68
2022/07/06 06:53:14;;;;;;;4.03;1.40;;;;;;;18.27;83.46;102120.06;4963350;28;20705;-67
2022/07/06 06:55:41;;;;;;;11.60;2.13;;;;;;;18.39;82.38;102116.75;4968627;28;20455;-69
2022/07/06 06:58:08;;;;;;;12.23;2.13;;;;;;;18.50;81.99;102120.22;4966987;28;20078;-68
2022/07/06 07:00:35;;;;;;;5.10;1.30;;;;;;;18.54;81.38;102118.97;4962388;28;20055;-70
2022/07/06 07:03:01;;;;;;;13.10;3.70;;;;;;;18.65;80.58;102116.03;4964943;28;20082;-67
2022/07/06 07:05:28;;;;;;;4.57;1.58;;;;;;;18.76;79.72;102119.53;4963881;28;20137;-70
2022/07/06 07:07:58;;;;;;;6.95;1.45;;;;;;;18.84;78.28;102112.59;4965565;28;20592;-67
2022/07/06 07:10:31;;;;;;;4.30;1.40;;;;;;;18.94;78.32;102123.69;4964111;28;20205;-69
2022/07/06 07:12:58;;;;;;;8.38;1.67;;;;;;;19.03;77.45;102114.75;4958183;28;20169;-67
2022/07/06 07:15:26;;;;;;;3.65;1.33;;;;;;;19.07;75.77;102121.09;4961161;28;20074;-69
2022/07/06 07:17:52;;;;;;;5.35;1.00;;;;;;;18.97;76.51;102122.81;4962805;28;20154;-67
2022/07/06 07:20:19;;;;;;;2.92;1.30;;;;;;;19.06;77.05;102117.50;4962705;28;20059;-69
2022/07/06 07:22:46;;;;;;;5.97;1.30;;;;;;;19.23;77.18;102122.06;4957121;28;20082;-69
2022/07/06 07:25:12;;;;;;;6.57;1.60;;;;;;;19.37;74.98;102129.53;4957226;28;20059;-68
2022/07/06 07:27:39;;;;;;;3.30;1.33;;;;;;;19.37;72.40;102127.50;4957234;28;20039;-68
2022/07/06 07:30:06;;;;;;;7.90;1.27;;;;;;;19.47;72.58;102134.19;4960663;28;20570;-68
2022/07/06 07:32:33;;;;;;;11.75;1.90;;;;;;;19.58;71.97;102135.59;4965217;28;20117;-71
2022/07/06 07:34:59;;;;;;;5.18;1.35;;;;;;;19.58;71.08;102135.59;4966928;28;20157;-67
2022/07/06 07:37:26;;;;;;;2.72;0.90;;;;;;;19.51;70.46;102144.13;4967899;28;20074;-69
2022/07/06 07:39:53;;;;;;;5.50;1.45;;;;;;;19.60;70.33;102133.16;4963649;28;20681;-70
2022/07/06 07:42:19;;;;;;;4.60;1.10;;;;;;;19.70;69.12;102128.59;4967054;28;20050;-68
2022/07/06 07:44:46;;;;;;;10.60;2.20;;;;;;;19.68;68.41;102134.63;4964621;28;20166;-71
2022/07/06 07:47:12;;;;;;;3.13;0.93;;;;;;;19.69;67.69;102130.63;4967398;28;20082;-69
2022/07/06 07:49:39;;;;;;;6.57;1.05;;;;;;;19.85;67.48;102130.72;4965866;28;20499;-69
2022/07/06 07:52:06;;;;;;;3.42;1.25;;;;;;;19.97;67.12;102134.94;4965425;28;20133;-69
2022/07/06 07:54:32;;;;;;;5.93;1.13;;;;;;;20.06;65.80;102138.81;4965797;28;20678;-69
2022/07/06 07:56:59;;;;;;;5.60;1.25;;;;;;;20.22;65.78;102129.72;4967640;28;20130;-68
2022/07/06 07:59:26;;;;;;;41.72;7.95;;;;;;;20.34;65.53;102135.50;4968098;28;20783;-69
2022/07/06 08:01:52;;;;;;;7.20;1.23;;;;;;;20.46;63.92;102133.28;4963390;28;20058;-69
2022/07/06 08:04:19;;;;;;;7.85;1.20;;;;;;;20.24;62.80;102127.25;4965902;28;20066;-68
2022/07/06 08:06:46;;;;;;;6.50;1.13;;;;;;;20.34;64.50;102129.88;4967694;28;20129;-70
2022/07/06 08:09:13;;;;;;;2.70;0.70;;;;;;;20.27;64.07;102132.81;4961100;28;20087;-68
2022/07/06 08:11:40;;;;;;;6.45;1.13;;;;;;;20.00;66.10;102134.91;4959477;28;20130;-71
2022/07/06 08:14:06;;;;;;;5.90;1.67;;;;;;;20.20;65.47;102132.97;4959763;28;20134;-67
2022/07/06 08:16:33;;;;;;;6.35;1.20;;;;;;;20.35;65.02;102131.47;4965903;28;20105;-67
2022/07/06 08:19:00;;;;;;;5.80;1.20;;;;;;;20.32;64.09;102135.13;4961560;28;20043;-66
2022/07/06 08:21:34;;;;;;;4.38;1.10;;;;;;;20.42;65.10;102138.19;4964819;28;20058;-66
2022/07/06 08:24:01;;;;;;;8.60;1.48;;;;;;;20.49;64.83;102133.22;4964108;28;20058;-66
2022/07/06 08:26:28;;;;;;;6.10;1.40;;;;;;;20.50;63.14;102143.22;4969025;28;20117;-67
2022/07/06 08:28:55;;;;;;;5.00;1.30;;;;;;;20.61;62.68;102138.19;4967398;28;20062;-68
2022/07/06 08:31:22;;;;;;;2.60;1.10;;;;;;;20.73;62.65;102143.19;4967323;28;20150;-68
2022/07/06 08:34:09;;;;;;;3.83;1.15;;;;;;;20.89;62.35;102129.16;4965722;28;20408;-67
2022/07/06 08:36:36;;;;;;;6.93;1.25;;;;;;;20.94;61.13;102136.31;4963681;28;20051;-68
2022/07/06 08:39:03;;;;;;;7.00;1.00;;;;;;;20.89;59.62;102131.19;4956422;28;20051;-67
2022/07/06 08:41:30;;;;;;;1.33;0.40;;;;;;;20.66;57.77;102128.47;4958850;28;20092;-69
2022/07/06 08:43:57;;;;;;;4.53;0.90;;;;;;;20.70;59.50;102129.97;4965593;28;20555;-68
2022/07/06 08:46:27;;;;;;;4.78;1.00;;;;;;;20.64;58.56;102128.09;4976037;28;20086;-69
2022/07/06 08:48:54;;;;;;;7.75;1.10;;;;;;;20.75;57.88;102139.94;4962554;28;20046;-70
2022/07/06 08:51:22;;;;;;;3.83;0.75;;;;;;;20.76;56.14;102133.06;4959664;28;20058;-68
2022/07/06 08:53:57;;;;;;;3.50;1.13;;;;;;;20.67;57.01;102135.66;4955760;28;20059;-68
2022/07/06 08:56:24;;;;;;;7.82;0.90;;;;;;;20.76;56.46;102122.63;4961034;28;20053;-68
2022/07/06 08:58:52;;;;;;;2.55;0.90;;;;;;;20.92;55.86;102130.31;4962514;28;20055;-69
2022/07/06 09:01:19;;;;;;;6.13;0.95;;;;;;;20.90;56.49;102127.16;4964910;28;20113;-69
2022/07/06 09:03:49;;;;;;;2.70;1.33;;;;;;;20.98;56.48;102129.41;4961941;28;20075;-68
2022/07/06 09:06:24;;;;;;;10.05;1.35;;;;;;;21.14;56.42;102129.44;4966379;28;20070;-69
2022/07/06 09:08:54;;;;;;;5.00;1.02;;;;;;;21.26;57.05;102125.16;4960014;28;20047;-69
2022/07/06 09:11:22;;;;;;;2.60;1.00;;;;;;;21.11;57.49;102132.34;4965926;28;20345;-69
2022/07/06 09:13:51;;;;;;;10.85;3.63;;;;;;;21.36;56.50;102127.72;4965744;28;20082;-68
2022/07/06 09:16:24;;;;;;;5.25;1.35;;;;;;;21.40;55.84;102128.44;4959988;28;20117;-69
2022/07/06 09:19:03;;;;;;;;;;;;;;;21.59;53.49;102127.56;4959492;28;20126;-68
2022/07/06 09:21:32;;;;;;;7.03;1.17;;;;;;;21.77;54.11;102124.38;4958830;28;20413;-69
2022/07/06 09:24:02;;;;;;;4.88;1.17;;;;;;;22.07;54.30;102124.75;4963113;28;20101;-68
2022/07/06 09:26:29;;;;;;;5.35;1.25;;;;;;;22.26;52.92;102114.59;4966787;28;20062;-68
2022/07/06 09:28:59;;;;;;;5.57;0.90;;;;;;;22.26;50.64;102121.03;4965481;28;20075;-69
2022/07/06 09:31:26;;;;;;;4.22;1.00;;;;;;;22.17;50.71;102120.09;4965616;28;20130;-69
2022/07/06 09:34:09;;;;;;;5.18;1.08;;;;;;;22.13;49.99;102125.81;4966633;28;21686;-67
2022/07/06 09:36:48;;;;;;;7.28;1.13;;;;;;;22.02;50.43;102116.06;4963205;28;20055;-69
2022/07/06 09:39:19;;;;;;;2.58;0.90;;;;;;;21.63;50.61;102119.06;4954827;28;20564;-68
2022/07/06 09:41:48;;;;;;;5.93;1.02;;;;;;;21.63;51.84;102128.28;4981534;28;20606;-68
2022/07/06 09:44:25;;;;;;;4.40;0.93;;;;;;;21.70;50.71;102119.66;4962955;28;20120;-68
2022/07/06 09:46:56;;;;;;;8.07;1.20;;;;;;;21.77;51.44;102121.56;4956456;28;20047;-69
2022/07/06 09:49:23;;;;;;;6.50;1.23;;;;;;;21.80;50.81;102123.50;4963514;28;20510;-69
2022/07/06 09:51:55;;;;;;;4.20;1.30;;;;;;;21.77;50.31;102116.69;4960514;28;20149;-69
2022/07/06 09:54:23;;;;;;;3.10;1.63;;;;;;;21.61;50.32;102119.50;4961261;28;20058;-69
2022/07/06 09:56:51;;;;;;;3.65;1.20;;;;;;;21.66;51.05;102129.41;4958638;28;20078;-70
2022/07/06 09:59:26;;;;;;;4.13;1.35;;;;;;;21.66;50.89;102127.41;4966341;28;20090;-70
2022/07/06 10:01:55;;;;;;;4.68;1.10;;;;;;;21.43;50.69;102129.59;4964916;28;20055;-69
2022/07/06 10:04:24;;;;;;;5.55;0.90;;;;;;;21.73;51.44;102130.06;4964972;28;20035;-69
2022/07/06 10:06:52;;;;;;;4.43;1.05;;;;;;;21.63;48.67;102122.66;4959852;28;20508;-68
2022/07/06 10:09:20;;;;;;;4.85;1.02;;;;;;;21.91;49.99;102121.97;4965465;28;20082;-69
2022/07/06 10:11:53;;;;;;;5.00;0.90;;;;;;;22.26;48.40;102123.06;4963956;28;20464;-69
2022/07/06 10:14:25;;;;;;;3.35;0.85;;;;;;;22.43;48.20;102113.31;4961899;28;20066;-70
2022/07/06 10:16:52;;;;;;;3.25;0.82;;;;;;;22.35;48.11;102126.03;4964362;28;20145;-70
2022/07/06 10:19:21;;;;;;;7.60;1.45;;;;;;;22.52;46.78;102121.97;4935061;28;20523;-68
2022/07/06 10:21:48;;;;;;;6.57;1.17;;;;;;;22.59;46.68;102121.75;4959683;28;20154;-71
2022/07/06 10:24:15;;;;;;;6.65;0.73;;;;;;;22.64;45.85;102112.75;4954593;28;20059;-70
2022/07/06 10:26:42;;;;;;;3.03;0.73;;;;;;;22.49;45.93;102114.41;4954259;28;20050;-70
2022/07/06 10:29:09;;;;;;;9.80;1.30;;;;;;;22.55;46.73;102112.63;4954722;28;20155;-70
2022/07/06 10:31:40;;;;;;;2.85;0.95;;;;;;;22.67;46.66;102109.03;4956120;28;20061;-71
2022/07/06 10:34:10;;;;;;;5.50;1.70;;;;;;;22.66;47.08;102113.09;4957472;28;20113;-69
2022/07/06 10:36:42;;;;;;;4.40;1.05;;;;;;;22.55;46.96;102121.84;4953808;28;20848;-68
2022/07/06 10:41:56;;;;;;;9.25;1.30;;;;;;;21.96;49.10;102126.28;4955657;28;20061;-69
2022/07/06 10:44:27;;;;;;;5.97;1.10;;;;;;;21.98;49.54;102126.63;4957206;28;20137;-69
2022/07/06 10:46:56;;;;;;;4.45;1.20;;;;;;;21.88;50.00;102120.06;4958480;28;20057;-71
2022/07/06 10:49:24;;;;;;;3.90;1.00;;;;;;;22.18;48.95;102111.16;4959383;28;20055;-68
2022/07/06 10:52:11;;;;;;;6.55;1.20;;;;;;;22.28;47.32;102112.13;4958784;28;20061;-68
2022/07/06 10:54:43;;;;;;;4.82;1.13;;;;;;;22.48;45.65;102109.97;4956852;28;20777;-72
2022/07/06 10:57:14;;;;;;;1.45;0.80;;;;;;;22.43;46.10;102113.31;4957434;28;20601;-69
2022/07/06 11:00:00;;;;;;;4.85;0.90;;;;;;;22.81;45.54;102105.00;4959597;28;20059;-70
2022/07/06 11:02:38;;;;;;;7.43;1.13;;;;;;;23.15;45.36;102119.28;4955046;28;20058;-69
2022/07/06 11:05:11;;;;;;;5.82;0.95;;;;;;;22.90;44.64;102091.81;4956711;28;20077;-68
2022/07/06 11:07:50;;;;;;;2.13;0.45;;;;;;;22.31;46.07;102109.19;4957699;28;20063;-71
2022/07/06 11:10:17;;;;;;;6.78;1.10;;;;;;;22.38;46.80;102109.00;4958454;28;20128;-69
2022/07/06 11:12:46;;;;;;;3.58;0.93;;;;;;;22.44;46.15;102110.06;4958190;28;20058;-70
2022/07/06 11:15:48;;;;;;;2.45;0.80;;;;;;;21.89;45.80;102106.72;4958180;28;20133;-68
2022/07/06 11:18:19;;;;;;;5.82;1.25;;;;;;;21.97;46.86;102113.78;4957866;28;20054;-69
2022/07/06 11:21:17;;;;;;;7.80;2.53;;;;;;;22.34;45.99;102099.09;4957112;28;20190;-69
2022/07/06 11:23:47;;;;;;;0.15;0.15;;;;;;;22.13;46.17;102096.81;4956916;28;20058;-68
2022/07/06 11:26:14;;;;;;;6.15;1.17;;;;;;;22.25;46.01;102094.09;4955261;28;20156;-70
2022/07/06 11:28:41;;;;;;;9.82;1.23;;;;;;;22.40;46.29;102091.63;4958163;28;20046;-69
2022/07/06 11:31:08;;;;;;;5.60;1.45;;;;;;;22.51;46.16;102098.59;4958996;28;20067;-70
2022/07/06 11:33:35;;;;;;;2.88;1.00;;;;;;;22.51;45.46;102092.19;4956373;28;20173;-70